CYDFCYJT

Guest
Details From CYDF - DEER LAKE
To CYJT - STEPHENVILLE
Flight Number -
Tags generated
Created
Modified
Stats Distance 61 nm / 113 km
Max Altitude 6,600 ft / 2,012 m
Waypoints 3
Social Downloads 1
Likes 0
Share VATSIM

Download

Looking for another format? Having issues loading an existing format? Contact us
Advertisement - Login to hide

Notes

Basic altitude profile: - Ascent Rate: 2500ft/min - Ascent Speed: 250kts - Cruise Altitude: 35000ft - Cruise Speed: 420kts - Descent Rate: 1500ft/min - Descent Speed: 250kts Options: - Use NATs: yes - Use PACOTS: yes - Use low airways: yes - Use high airways: no

Route

CYDF FINNI CYJT

ID Type Via Altitude Latitude Longitude Leg Dist Tot Dist Heading (true) Name
O CYDF APT - 0 ft / 0 m 49.21100˚ -57.39125˚ - 0 nm - DEER LAKE
FINNI FIX - 6,600 ft / 2,012 m 49.00111˚ -57.74056˚ 18 nm 18 nm 228° / 227° -
O CYJT APT - 0 ft / 0 m 48.54181˚ -58.55149˚ 42 nm 60 nm 230° / 229° STEPHENVILLE

Altitude Profile

Advertisement - Login to hide

CYDF

Details ICAO CYDF (YDF)
Name DEER LAKE
Region Canada
Timezone America/St_Johns (UTC-3.5)
Stats Elevation 72 ft / 22 m (AMSL)
Location 49.211000° -57.391246°
Runways 1
Magnetic Variation 19.135° W

METAR

CYDF 120700Z 31006KT 270V350 10SM -SN FEW015 BKN023 OVC050 M05/M08 A2999 RMK SF2SC4SC2 SLP159

Decode

TAF

TAF CYDF 120138Z 1202/1214 22005KT 4SM -SN OVC015 TEMPO 1202/1206 6SM -SN SCT015 OVC030 PROB30 1202/1206 2SM -SHSN FM120600 32005KT 5SM -SN BKN020 OVC040 TEMPO 1206/1208 P6SM NSW SCT020 OVC040 FM120800 32005KT P6SM BKN040 BECMG 1212/1214 04008KT RMK NXT FCST BY 120800Z

Decode

Departure Runways

ID Width Length Bearing (true) Bearing (mag) Surface Threshold Offset Overrun Length
07 151 ft / 46 m 5,989 ft / 1,825 m 46.32° 65.46° Asphalt 0 ft / 0 m 0 ft / 0 m
25 151 ft / 46 m 5,989 ft / 1,825 m 226.34° 245.48° Asphalt 0 ft / 0 m 0 ft / 0 m

CYJT

Details ICAO CYJT (YJT)
Name STEPHENVILLE
Region Canada
Timezone America/St_Johns (UTC-3.5)
Stats Elevation 80 ft / 24 m (AMSL)
Location 48.541811° -58.551488°
Runways 2
Magnetic Variation 18.924° W

METAR

CYJT 120700Z 36005KT 15SM OVC020 M04/M06 A2999 RMK SC8 SLP157

Decode

TAF

TAF CYJT 120539Z 1206/1306 35010KT 3SM -SN SCT012 OVC020 TEMPO 1206/1208 6SM -SN OVC025 FM120800 01012KT P6SM OVC025 TEMPO 1208/1212 5SM -SN OVC020 FM121200 02010KT P6SM BKN025 FM121600 06007KT P6SM SCT025 BECMG 1222/1224 07012G22KT FM130200 07015G25KT P6SM OVC020 RMK NXT FCST BY 121200Z

Decode

Destination Runways

ID Width Length Bearing (true) Bearing (mag) Surface Threshold Offset Overrun Length
02 150 ft / 46 m 3,770 ft / 1,149 m 355.50° 14.42° Asphalt 0 ft / 0 m 0 ft / 0 m
09 200 ft / 61 m 9,970 ft / 3,039 m 71.61° 90.53° Asphalt 0 ft / 0 m 1,000 ft / 305 m
20 150 ft / 46 m 3,770 ft / 1,149 m 175.50° 194.42° Asphalt 0 ft / 0 m 0 ft / 0 m
27 200 ft / 61 m 9,970 ft / 3,039 m 251.64° 270.56° Asphalt 0 ft / 0 m 1,000 ft / 305 m

Popular Alternatives